Time;durP1;ratioP1;P1;durP2;ratioP2;P2;SDS_P1;SDS_P2;PMS_P1;PMS_P2;Temp;Humidity;BMP_temperature;BMP_pressure;BME280_temperature;BME280_humidity;BME280_pressure;Samples;Min_cycle;Max_cycle;Signal;HPM_P1;HPM_P2
2022/10/08 00:01:11;;;;;;;4.03;1.20;;;17.80;85.50;;;;;;5071888;28;20033;-79
2022/10/08 00:03:42;;;;;;;3.30;1.42;;;17.80;85.50;;;;;;5042397;28;20024;-80
2022/10/08 00:06:24;;;;;;;2.58;1.23;;;17.80;85.30;;;;;;5079860;28;20021;-81
2022/10/08 00:08:55;;;;;;;4.05;1.52;;;17.80;85.30;;;;;;5061378;28;20510;-80
2022/10/08 00:11:24;;;;;;;3.67;1.35;;;17.90;85.20;;;;;;5061784;28;20092;-80
2022/10/08 00:13:51;;;;;;;3.15;1.40;;;17.90;85.10;;;;;;5061287;28;20572;-80
2022/10/08 00:16:23;;;;;;;4.20;1.30;;;17.90;85.20;;;;;;5079117;28;20029;-80
2022/10/08 00:18:51;;;;;;;4.22;1.45;;;17.80;85.10;;;;;;5060701;28;20115;-79
2022/10/08 00:21:30;;;;;;;3.58;1.38;;;17.80;85.30;;;;;;5078723;28;20039;-79
2022/10/08 00:23:57;;;;;;;3.58;1.30;;;17.80;85.30;;;;;;5060444;28;20035;-80
2022/10/08 00:26:26;;;;;;;2.72;1.13;;;17.80;85.30;;;;;;5059935;28;20495;-79
2022/10/08 00:28:54;;;;;;;3.83;1.20;;;17.70;85.30;;;;;;5058141;28;20082;-79
2022/10/08 00:31:26;;;;;;;3.97;1.40;;;17.80;85.30;;;;;;5055207;28;20476;-80
2022/10/08 00:33:55;;;;;;;3.25;1.20;;;17.80;85.40;;;;;;5056462;28;20059;-80
2022/10/08 00:36:22;;;;;;;4.28;1.23;;;17.80;85.50;;;;;;5056260;28;20021;-80
2022/10/08 00:38:48;;;;;;;4.70;1.40;;;17.80;85.50;;;;;;5062475;28;20081;-80
2022/10/08 00:41:20;;;;;;;5.93;1.70;;;17.80;85.50;;;;;;5055363;28;20439;-79
2022/10/08 00:43:49;;;;;;;3.25;1.25;;;17.80;85.50;;;;;;5053582;28;20032;-79
2022/10/08 00:46:21;;;;;;;3.15;1.20;;;17.70;85.50;;;;;;5054551;28;20773;-79
2022/10/08 00:48:48;;;;;;;3.13;1.20;;;17.70;85.50;;;;;;5052416;28;20058;-78
2022/10/08 00:51:14;;;;;;;3.22;1.38;;;17.70;85.60;;;;;;5054762;28;20021;-79
2022/10/08 00:53:39;;;;;;;3.60;1.42;;;17.70;85.60;;;;;;5054616;28;20024;-79
2022/10/08 00:56:05;;;;;;;4.15;1.30;;;17.70;85.60;;;;;;5055876;28;20387;-79
2022/10/08 00:58:31;;;;;;;3.30;1.45;;;17.80;85.60;;;;;;5051508;28;20025;-79
2022/10/08 01:00:57;;;;;;;3.47;1.40;;;17.80;85.40;;;;;;5055149;28;20035;-81
2022/10/08 01:03:23;;;;;;;4.82;1.33;;;17.80;85.30;;;;;;5056279;28;20096;-80
2022/10/08 01:06:06;;;;;;;4.00;1.33;;;17.90;85.20;;;;;;5057933;28;20041;-80
2022/10/08 01:08:41;;;;;;;3.60;1.48;;;17.80;85.20;;;;;;5058580;28;20378;-80
2022/10/08 01:11:27;;;;;;;3.45;1.33;;;17.80;85.20;;;;;;5062769;28;20025;-80
2022/10/08 01:14:22;;;;;;;3.28;1.40;;;17.80;85.10;;;;;;5047387;28;20061;-79
2022/10/08 01:16:57;;;;;;;3.05;1.25;;;17.80;85.10;;;;;;5063422;28;20028;-79
2022/10/08 01:19:58;;;;;;;3.20;1.48;;;17.80;85.20;;;;;;5058744;28;20040;-79
2022/10/08 01:22:47;;;;;;;3.40;1.30;;;17.80;85.30;;;;;;5063759;28;20027;-79
2022/10/08 01:25:34;;;;;;;5.47;1.63;;;17.70;85.40;;;;;;5062649;28;20407;-81
2022/10/08 01:28:16;;;;;;;3.28;1.38;;;17.70;85.40;;;;;;5062581;28;20374;-79
2022/10/08 01:30:58;;;;;;;3.83;1.40;;;17.70;85.20;;;;;;5063792;28;20021;-78
2022/10/08 01:33:36;;;;;;;3.30;1.50;;;17.70;85.30;;;;;;5062294;28;20111;-79
2022/10/08 01:36:04;;;;;;;3.80;1.48;;;17.70;85.40;;;;;;5063869;28;20060;-79
2022/10/08 01:38:32;;;;;;;3.78;1.48;;;17.70;85.30;;;;;;5055586;28;20116;-79
2022/10/08 01:41:04;;;;;;;3.65;1.35;;;17.70;85.30;;;;;;5079816;28;20035;-79
2022/10/08 01:43:34;;;;;;;3.00;1.23;;;17.70;85.40;;;;;;5064768;28;20024;-80
2022/10/08 01:46:06;;;;;;;2.97;1.20;;;17.70;85.50;;;;;;5065799;28;20039;-79
2022/10/08 01:48:35;;;;;;;4.57;1.58;;;17.70;85.60;;;;;;5064529;28;20028;-79
2022/10/08 01:51:16;;;;;;;4.45;1.20;;;17.70;85.60;;;;;;5064104;28;20095;-78
2022/10/08 01:53:45;;;;;;;3.42;1.27;;;17.70;85.50;;;;;;5062409;28;20510;-78
2022/10/08 01:56:17;;;;;;;4.63;1.63;;;17.70;85.40;;;;;;5061150;28;20025;-78
2022/10/08 01:58:48;;;;;;;3.45;1.55;;;17.70;85.20;;;;;;5062925;28;20117;-80
2022/10/08 02:01:37;;;;;;;3.15;1.30;;;17.70;85.10;;;;;;5063660;28;20031;-79
2022/10/08 02:06:55;;;;;;;3.50;1.27;;;17.70;85.00;;;;;;5082320;28;20165;-79
2022/10/08 02:09:32;;;;;;;2.47;1.13;;;17.70;85.00;;;;;;5062861;28;20032;-79
2022/10/08 02:11:57;;;;;;;2.83;1.20;;;17.70;85.00;;;;;;5079018;28;20044;-80
2022/10/08 02:14:25;;;;;;;3.15;1.30;;;17.70;85.00;;;;;;5063966;28;20703;-79
2022/10/08 02:17:23;;;;;;;3.65;1.15;;;17.70;85.00;;;;;;5081781;28;20083;-79
2022/10/08 02:20:00;;;;;;;3.65;1.40;;;17.60;85.20;;;;;;4980837;28;20407;-79
2022/10/08 02:22:33;;;;;;;4.45;1.25;;;17.70;85.30;;;;;;5076969;28;20024;-79
2022/10/08 02:25:31;;;;;;;2.47;1.13;;;17.70;85.40;;;;;;5058424;28;20092;-79
2022/10/08 02:28:06;;;;;;;3.95;1.42;;;17.60;85.40;;;;;;4986514;28;20038;-79
2022/10/08 02:30:39;;;;;;;3.55;1.45;;;17.60;85.30;;;;;;5058445;28;20027;-78
2022/10/08 02:33:11;;;;;;;3.10;1.40;;;17.60;85.40;;;;;;5076818;28;20024;-79
2022/10/08 02:35:42;;;;;;;3.15;1.30;;;17.60;85.40;;;;;;5060389;28;20032;-79
2022/10/08 02:38:12;;;;;;;4.32;1.55;;;17.60;85.50;;;;;;5068647;28;20025;-79
2022/10/08 02:40:42;;;;;;;3.78;1.23;;;17.60;85.40;;;;;;5049414;28;20031;-79
2022/10/08 02:43:15;;;;;;;3.85;1.40;;;17.60;85.50;;;;;;5079533;28;20056;-80
2022/10/08 02:45:47;;;;;;;2.80;1.33;;;17.60;85.60;;;;;;5057474;28;20047;-81
2022/10/08 02:48:19;;;;;;;3.85;1.35;;;17.50;85.40;;;;;;5067837;28;20067;-79
2022/10/08 02:51:12;;;;;;;2.97;1.13;;;17.60;85.40;;;;;;5076219;28;20017;-79
2022/10/08 02:53:39;;;;;;;3.58;1.30;;;17.60;85.30;;;;;;5079913;28;20020;-79
2022/10/08 02:56:23;;;;;;;3.80;1.35;;;17.60;85.20;;;;;;5061577;28;20127;-80
2022/10/08 02:58:50;;;;;;;4.50;1.60;;;17.70;85.20;;;;;;5061893;28;20111;-79
2022/10/08 03:01:30;;;;;;;3.85;1.33;;;17.70;85.10;;;;;;5079386;28;20052;-79
2022/10/08 03:04:20;;;;;;;3.30;1.30;;;17.70;85.10;;;;;;5061270;28;20032;-79
2022/10/08 03:06:47;;;;;;;;;;;17.70;85.00;;;;;;5068652;28;20035;-80
2022/10/08 03:09:14;;;;;;;3.05;1.20;;;17.60;85.00;;;;;;5074773;28;19996;-79
2022/10/08 03:11:40;;;;;;;4.00;1.50;;;17.60;85.10;;;;;;5075776;28;20024;-79
2022/10/08 03:14:08;;;;;;;4.32;1.40;;;17.60;85.20;;;;;;5069107;28;20044;-79
2022/10/08 03:16:45;;;;;;;4.22;1.60;;;17.60;85.20;;;;;;5060216;28;20432;-79
2022/10/08 03:19:16;;;;;;;2.38;1.13;;;17.60;85.30;;;;;;5058654;28;20056;-79
2022/10/08 03:21:43;;;;;;;4.38;1.38;;;17.60;85.30;;;;;;5075450;28;20020;-79
2022/10/08 03:24:10;;;;;;;3.55;1.27;;;17.60;85.30;;;;;;5056419;28;20028;-79
2022/10/08 03:26:36;;;;;;;3.88;1.50;;;17.70;85.50;;;;;;5074292;28;20105;-79
2022/10/08 03:29:03;;;;;;;2.95;1.25;;;17.60;85.50;;;;;;5055983;28;20488;-80
2022/10/08 03:31:28;;;;;;;2.92;1.10;;;17.60;85.50;;;;;;5075883;28;20035;-79
2022/10/08 03:33:54;;;;;;;3.75;1.40;;;17.60;85.50;;;;;;5074324;28;20028;-79
2022/10/08 03:36:22;;;;;;;4.55;1.52;;;17.60;85.60;;;;;;5059465;28;20025;-79
2022/10/08 03:38:48;;;;;;;3.65;1.40;;;17.60;85.50;;;;;;5076693;28;20028;-80
2022/10/08 03:41:15;;;;;;;3.75;1.42;;;17.50;85.40;;;;;;5078163;28;20032;-80
2022/10/08 03:43:41;;;;;;;2.90;1.35;;;17.60;85.60;;;;;;5062353;28;20031;-80
2022/10/08 03:46:09;;;;;;;3.47;1.45;;;17.60;85.40;;;;;;5079853;28;20043;-79
2022/10/08 03:48:35;;;;;;;4.57;1.42;;;17.60;85.40;;;;;;5053009;28;20046;-80
2022/10/08 03:51:04;;;;;;;4.38;1.40;;;17.60;85.30;;;;;;5060859;28;20025;-79
2022/10/08 03:53:35;;;;;;;4.10;1.20;;;17.60;85.20;;;;;;5061559;28;20539;-81
2022/10/08 03:56:07;;;;;;;3.38;1.30;;;17.60;85.10;;;;;;5059856;28;20060;-79
2022/10/08 03:58:33;;;;;;;3.85;1.48;;;17.70;85.10;;;;;;5060554;28;20029;-79
2022/10/08 04:01:07;;;;;;;3.40;1.40;;;17.60;85.00;;;;;;5078122;28;20400;-79
2022/10/08 04:03:33;;;;;;;2.60;1.23;;;17.60;85.00;;;;;;5078655;28;20020;-80
2022/10/08 04:05:59;;;;;;;4.32;1.80;;;17.60;85.00;;;;;;5059959;28;20437;-79
2022/10/08 04:08:25;;;;;;;3.38;1.40;;;17.60;85.20;;;;;;5060052;28;20107;-80
2022/10/08 04:10:51;;;;;;;4.13;1.42;;;17.60;85.20;;;;;;5071727;28;20507;-80
2022/10/08 04:13:18;;;;;;;4.10;1.42;;;17.60;85.30;;;;;;5073541;28;20113;-79
2022/10/08 04:15:46;;;;;;;2.53;1.25;;;17.60;85.40;;;;;;5059665;28;20031;-79
2022/10/08 04:18:12;;;;;;;3.80;1.40;;;17.50;85.30;;;;;;5060294;28;20024;-79
2022/10/08 04:20:39;;;;;;;3.40;1.40;;;17.50;85.40;;;;;;5076578;28;20112;-79
2022/10/08 04:23:06;;;;;;;3.00;1.20;;;17.60;85.50;;;;;;5052863;28;20052;-78
2022/10/08 04:25:32;;;;;;;3.35;1.20;;;17.50;85.40;;;;;;5050266;28;20032;-78
2022/10/08 04:27:57;;;;;;;4.10;1.10;;;17.50;85.50;;;;;;5048574;28;20029;-78
2022/10/08 04:30:23;;;;;;;4.72;1.55;;;17.50;85.40;;;;;;5049791;28;20115;-78
2022/10/08 04:32:49;;;;;;;4.15;1.58;;;17.50;85.50;;;;;;5051159;28;20488;-79
2022/10/08 04:35:15;;;;;;;4.07;1.50;;;17.50;85.50;;;;;;5050987;28;20718;-79
2022/10/08 04:37:40;;;;;;;3.75;1.30;;;17.50;85.50;;;;;;5069823;28;20060;-79
2022/10/08 04:40:06;;;;;;;3.40;1.45;;;17.60;85.50;;;;;;5051173;28;20388;-79
2022/10/08 04:42:32;;;;;;;3.83;1.50;;;17.50;85.40;;;;;;5051241;28;20487;-78
2022/10/08 04:44:57;;;;;;;6.03;1.40;;;17.60;85.40;;;;;;5054588;28;20028;-78
2022/10/08 04:47:23;;;;;;;3.53;1.55;;;17.50;85.30;;;;;;5058590;28;20048;-79
2022/10/08 04:49:48;;;;;;;3.05;1.20;;;17.60;85.30;;;;;;5052545;28;20028;-78
2022/10/08 04:52:16;;;;;;;3.22;1.33;;;17.60;85.20;;;;;;5050420;28;20548;-78
2022/10/08 04:54:41;;;;;;;3.20;1.30;;;17.60;85.10;;;;;;5048200;28;20029;-79
2022/10/08 04:57:07;;;;;;;3.63;1.40;;;17.70;85.20;;;;;;5064850;28;20029;-79
2022/10/08 04:59:32;;;;;;;2.88;1.30;;;17.60;85.10;;;;;;5068416;28;20043;-78
2022/10/08 05:01:58;;;;;;;3.22;1.40;;;17.60;85.10;;;;;;5050335;28;20031;-79
2022/10/08 05:04:23;;;;;;;3.85;1.30;;;17.40;85.00;;;;;;5050305;28;20047;-81
2022/10/08 05:06:49;;;;;;;2.55;1.13;;;17.50;85.10;;;;;;5050593;28;20028;-77
2022/10/08 05:09:15;;;;;;;3.60;1.50;;;17.50;85.20;;;;;;5068506;28;20038;-78
2022/10/08 05:11:41;;;;;;;3.00;1.20;;;17.50;85.20;;;;;;5068363;28;20024;-78
2022/10/08 05:14:06;;;;;;;3.05;1.30;;;17.50;85.30;;;;;;5052732;28;20051;-78
2022/10/08 05:16:32;;;;;;;2.85;1.00;;;17.50;85.30;;;;;;5062805;28;20110;-79
2022/10/08 05:18:58;;;;;;;3.00;1.40;;;17.50;85.40;;;;;;5067941;28;20052;-77
2022/10/08 05:21:27;;;;;;;2.85;1.13;;;17.50;85.40;;;;;;5049787;28;20024;-77
2022/10/08 05:23:54;;;;;;;5.10;1.48;;;17.50;85.40;;;;;;5065009;28;20035;-78
2022/10/08 05:26:22;;;;;;;9.32;1.83;;;17.50;85.10;;;;;;5052022;28;20303;-82
2022/10/08 05:28:55;;;;;;;4.20;1.48;;;17.50;85.10;;;;;;5072066;28;20033;-80
2022/10/08 05:31:22;;;;;;;6.35;1.70;;;17.50;85.70;;;;;;5049695;28;20019;-80
2022/10/08 05:33:48;;;;;;;8.48;1.65;;;17.50;85.20;;;;;;5080264;28;20020;-78
2022/10/08 05:36:20;;;;;;;9.15;2.22;;;17.50;84.90;;;;;;5069123;28;20078;-79
2022/10/08 05:38:46;;;;;;;9.40;2.08;;;17.50;84.80;;;;;;5051752;28;20039;-80
2022/10/08 05:41:12;;;;;;;7.90;1.85;;;17.60;84.70;;;;;;5049819;28;20024;-78
2022/10/08 05:43:38;;;;;;;7.55;2.30;;;17.60;84.60;;;;;;5069290;28;20029;-79
2022/10/08 05:46:04;;;;;;;5.78;1.73;;;17.70;84.60;;;;;;5051112;28;20031;-80
2022/10/08 05:48:30;;;;;;;6.72;1.60;;;17.70;84.50;;;;;;5052730;28;20055;-82
2022/10/08 05:50:56;;;;;;;6.18;1.75;;;17.60;84.50;;;;;;5070114;28;20024;-82
2022/10/08 05:53:21;;;;;;;6.65;1.75;;;17.90;84.80;;;;;;5052386;28;20033;-80
2022/10/08 05:55:47;;;;;;;7.30;2.05;;;17.90;85.70;;;;;;5052798;28;20035;-79
2022/10/08 05:58:12;;;;;;;7.13;1.75;;;18.10;86.00;;;;;;5054894;28;20412;-81
2022/10/08 06:00:38;;;;;;;6.25;1.92;;;18.20;86.30;;;;;;5056162;28;20547;-78
2022/10/08 06:03:03;;;;;;;5.75;1.85;;;18.30;86.30;;;;;;5053926;28;20031;-81
2022/10/08 06:05:29;;;;;;;7.53;1.73;;;18.40;86.00;;;;;;5055647;28;20144;-80
2022/10/08 06:07:56;;;;;;;6.00;1.77;;;18.50;86.00;;;;;;5061535;28;20036;-82
2022/10/08 06:10:23;;;;;;;7.97;1.70;;;18.60;86.40;;;;;;5075083;28;20025;-80
2022/10/08 06:12:49;;;;;;;7.47;1.70;;;18.60;86.10;;;;;;5057029;28;20096;-80
2022/10/08 06:15:15;;;;;;;8.13;1.73;;;18.70;86.50;;;;;;5074574;28;20152;-79
2022/10/08 06:17:40;;;;;;;5.53;1.70;;;18.70;86.40;;;;;;5056585;28;20029;-78
2022/10/08 06:20:06;;;;;;;6.50;2.00;;;18.80;86.20;;;;;;5072275;28;20507;-80
2022/10/08 06:22:32;;;;;;;6.28;1.80;;;18.80;86.30;;;;;;5054794;28;20431;-79
2022/10/08 06:24:57;;;;;;;8.30;1.85;;;18.90;86.10;;;;;;5054532;28;20024;-78
2022/10/08 06:27:23;;;;;;;9.52;2.00;;;19.00;86.00;;;;;;5055372;28;20099;-82
2022/10/08 06:29:48;;;;;;;10.43;2.25;;;19.00;85.80;;;;;;5042059;28;20112;-79
2022/10/08 06:32:14;;;;;;;8.40;2.00;;;19.00;85.70;;;;;;5038144;28;20013;-78
2022/10/08 06:34:40;;;;;;;6.30;2.00;;;19.10;85.50;;;;;;5050115;28;20029;-80
2022/10/08 06:37:06;;;;;;;5.47;1.60;;;19.10;85.20;;;;;;5055771;28;20391;-77
2022/10/08 06:39:32;;;;;;;6.32;1.88;;;19.20;84.80;;;;;;5055362;28;20107;-79
2022/10/08 06:41:58;;;;;;;6.50;1.70;;;19.20;84.40;;;;;;5054704;28;20078;-78
2022/10/08 06:44:23;;;;;;;6.35;1.92;;;19.20;84.00;;;;;;5057344;28;20039;-79
2022/10/08 06:46:49;;;;;;;11.57;1.98;;;19.10;84.10;;;;;;5044886;28;20032;-78
2022/10/08 06:49:14;;;;;;;5.65;2.38;;;19.00;84.60;;;;;;5062505;28;20028;-79
2022/10/08 06:51:40;;;;;;;6.60;1.95;;;18.90;84.90;;;;;;5051142;28;20027;-81
2022/10/08 06:54:06;;;;;;;7.90;2.08;;;18.80;85.30;;;;;;5054805;28;20024;-79
2022/10/08 06:56:32;;;;;;;5.10;1.65;;;18.70;85.70;;;;;;5054762;28;20056;-79
2022/10/08 06:58:58;;;;;;;7.75;2.40;;;18.60;86.00;;;;;;5054676;28;20051;-78
2022/10/08 07:01:25;;;;;;;4.90;1.77;;;18.60;86.20;;;;;;5070300;28;20872;-78
2022/10/08 07:04:01;;;;;;;8.95;2.10;;;18.50;86.20;;;;;;5053412;28;20035;-78
2022/10/08 07:06:27;;;;;;;8.25;2.10;;;18.50;86.40;;;;;;5068771;28;20024;-80
2022/10/08 07:08:54;;;;;;;6.72;1.88;;;18.40;86.50;;;;;;5054510;28;20062;-81
2022/10/08 07:11:21;;;;;;;6.85;1.80;;;18.40;86.50;;;;;;5049892;28;20477;-77
2022/10/08 07:13:46;;;;;;;6.32;1.77;;;18.40;86.60;;;;;;5059713;28;20079;-79
2022/10/08 07:16:20;;;;;;;6.35;2.17;;;18.40;86.70;;;;;;5076307;28;20028;-79
2022/10/08 07:18:47;;;;;;;5.18;1.88;;;18.30;86.60;;;;;;5054673;28;20036;-79
2022/10/08 07:21:14;;;;;;;6.05;1.98;;;18.30;86.70;;;;;;5054034;28;20391;-79
2022/10/08 07:23:40;;;;;;;13.45;2.30;;;18.40;86.40;;;;;;5072420;28;20031;-79
2022/10/08 07:26:09;;;;;;;7.30;2.30;;;18.40;85.80;;;;;;5058004;28;20021;-81
2022/10/08 07:28:37;;;;;;;6.10;2.20;;;18.30;85.50;;;;;;5058531;28;20029;-79
2022/10/08 07:31:15;;;;;;;7.43;2.38;;;18.40;85.30;;;;;;5051638;28;20392;-78
2022/10/08 07:33:41;;;;;;;6.63;2.50;;;18.40;85.20;;;;;;5054391;28;20024;-78
2022/10/08 07:36:09;;;;;;;7.70;2.13;;;18.40;85.10;;;;;;5070286;28;20086;-79
2022/10/08 07:38:35;;;;;;;6.32;2.13;;;18.40;85.00;;;;;;5056158;28;20039;-79
2022/10/08 07:41:00;;;;;;;6.82;2.10;;;18.40;85.00;;;;;;5051301;28;20479;-78
2022/10/08 07:43:26;;;;;;;7.22;2.20;;;18.40;85.10;;;;;;5046975;28;20044;-80
2022/10/08 07:45:51;;;;;;;8.07;2.63;;;18.40;85.10;;;;;;5063044;28;20443;-80
2022/10/08 07:48:18;;;;;;;8.48;2.10;;;18.30;85.20;;;;;;5049731;28;20047;-79
2022/10/08 07:50:44;;;;;;;7.38;2.05;;;18.30;85.30;;;;;;5048203;28;20021;-79
2022/10/08 07:53:10;;;;;;;6.57;2.33;;;18.30;85.40;;;;;;5068549;28;20031;-77
2022/10/08 07:55:35;;;;;;;4.97;2.13;;;18.20;85.40;;;;;;5052320;28;20033;-81
2022/10/08 07:58:01;;;;;;;5.78;2.00;;;18.10;85.40;;;;;;5051692;28;20071;-79
2022/10/08 08:00:27;;;;;;;5.65;1.90;;;18.20;85.60;;;;;;5052620;28;20028;-80
2022/10/08 08:02:52;;;;;;;6.30;2.00;;;18.20;85.70;;;;;;5051458;28;20025;-80
2022/10/08 08:05:18;;;;;;;7.25;2.10;;;18.20;85.70;;;;;;5068330;28;20089;-77
2022/10/08 08:07:44;;;;;;;6.22;1.98;;;18.10;85.70;;;;;;5071124;28;20029;-82
2022/10/08 08:10:09;;;;;;;4.57;1.90;;;18.10;85.80;;;;;;5052825;28;20017;-79
2022/10/08 08:12:35;;;;;;;7.30;2.20;;;18.20;85.80;;;;;;5059096;28;20028;-78
2022/10/08 08:15:00;;;;;;;6.38;2.05;;;18.10;85.80;;;;;;5057614;28;20047;-79
2022/10/08 08:17:26;;;;;;;12.52;2.38;;;18.00;85.80;;;;;;5051321;28;20400;-81
2022/10/08 08:19:51;;;;;;;5.80;2.25;;;18.10;85.90;;;;;;5069949;28;20020;-80
2022/10/08 08:22:17;;;;;;;4.45;2.00;;;17.90;85.70;;;;;;5057436;28;20040;-81
2022/10/08 08:24:43;;;;;;;5.05;2.00;;;18.10;85.70;;;;;;5053898;28;20091;-78
2022/10/08 08:27:08;;;;;;;5.28;2.13;;;17.90;85.60;;;;;;5073077;28;20048;-80
2022/10/08 08:29:34;;;;;;;7.90;2.30;;;18.10;85.40;;;;;;5071341;28;20064;-83
2022/10/08 08:31:59;;;;;;;7.40;2.60;;;18.10;85.10;;;;;;5053301;28;20072;-81
2022/10/08 08:34:25;;;;;;;6.13;1.98;;;19.10;85.10;;;;;;5082347;28;20156;-81
2022/10/08 08:36:54;;;;;;;5.75;2.15;;;19.20;84.70;;;;;;5062597;28;20029;-80
2022/10/08 08:39:25;;;;;;;4.22;1.90;;;18.40;84.00;;;;;;5052265;28;20032;-81
2022/10/08 08:41:57;;;;;;;5.07;2.10;;;18.40;84.20;;;;;;5049686;28;20024;-80
2022/10/08 08:44:29;;;;;;;7.35;2.40;;;18.40;83.50;;;;;;5051872;28;20032;-79
2022/10/08 08:47:00;;;;;;;6.68;2.30;;;18.40;83.40;;;;;;5070617;28;20980;-80
2022/10/08 08:49:31;;;;;;;6.33;2.30;;;18.50;83.50;;;;;;5053193;28;20067;-79
2022/10/08 08:51:59;;;;;;;5.60;2.13;;;18.50;83.40;;;;;;5055311;28;20021;-78
2022/10/08 08:54:25;;;;;;;5.63;2.13;;;18.50;83.20;;;;;;5071486;28;20029;-81
2022/10/08 08:56:52;;;;;;;4.43;2.13;;;18.60;83.10;;;;;;5069303;28;20027;-81
2022/10/08 08:59:37;;;;;;;5.70;2.17;;;18.70;83.00;;;;;;5069452;28;20032;-80
2022/10/08 09:02:12;;;;;;;5.25;1.88;;;18.70;82.90;;;;;;5070656;28;20111;-79
2022/10/08 09:04:51;;;;;;;6.03;2.10;;;18.70;83.10;;;;;;5068767;28;20039;-79
2022/10/08 09:07:22;;;;;;;5.47;2.03;;;18.60;83.10;;;;;;5051066;28;20029;-80
2022/10/08 09:09:51;;;;;;;4.40;1.92;;;18.60;83.10;;;;;;5052273;28;20032;-80
2022/10/08 09:12:28;;;;;;;5.20;1.98;;;18.60;83.40;;;;;;5051114;28;20086;-79
2022/10/08 09:14:56;;;;;;;4.57;1.98;;;18.60;83.40;;;;;;5050881;28;20078;-78
2022/10/08 09:17:39;;;;;;;8.15;2.03;;;18.50;83.60;;;;;;5069774;28;20102;-78
2022/10/08 09:20:05;;;;;;;4.05;1.83;;;18.50;83.90;;;;;;5038916;28;20020;-79
2022/10/08 09:22:38;;;;;;;4.50;1.90;;;18.50;83.90;;;;;;5047984;28;20402;-81
2022/10/08 09:25:25;;;;;;;4.68;2.00;;;18.50;83.90;;;;;;5062004;28;20031;-80
2022/10/08 09:27:59;;;;;;;4.57;1.90;;;18.50;83.60;;;;;;5041137;28;20021;-79
2022/10/08 09:30:25;;;;;;;5.82;2.08;;;18.60;83.70;;;;;;5053935;28;20025;-80
2022/10/08 09:32:53;;;;;;;4.45;2.00;;;18.50;83.60;;;;;;5057107;28;20050;-79
2022/10/08 09:35:19;;;;;;;3.80;1.80;;;18.50;83.70;;;;;;5073920;28;20027;-80
2022/10/08 09:37:46;;;;;;;5.93;2.38;;;18.50;83.80;;;;;;5052764;28;20025;-80
2022/10/08 09:40:11;;;;;;;4.65;1.90;;;18.50;84.10;;;;;;5057053;28;20219;-81
2022/10/08 09:42:38;;;;;;;4.38;1.75;;;18.60;83.50;;;;;;5075360;28;20079;-80
2022/10/08 09:45:30;;;;;;;4.38;1.80;;;18.50;83.60;;;;;;5057908;28;20082;-80
2022/10/08 09:48:16;;;;;;;6.35;2.00;;;18.40;83.80;;;;;;5074135;28;20046;-82
2022/10/08 09:50:52;;;;;;;4.95;1.92;;;18.40;84.00;;;;;;5055492;28;20031;-80
2022/10/08 09:53:19;;;;;;;3.35;1.80;;;18.40;84.20;;;;;;5065874;28;20024;-79
2022/10/08 09:55:59;;;;;;;3.38;1.60;;;18.40;84.20;;;;;;5056924;28;20550;-82
2022/10/08 09:58:27;;;;;;;3.13;1.58;;;18.40;83.90;;;;;;5055660;28;20060;-80
2022/10/08 10:01:13;;;;;;;4.60;1.70;;;18.50;83.70;;;;;;5050468;28;20036;-80
2022/10/08 10:03:40;;;;;;;5.15;1.73;;;18.60;83.60;;;;;;5050080;28;20036;-79
2022/10/08 10:06:05;;;;;;;5.53;2.15;;;18.60;83.40;;;;;;5052692;28;20114;-79
2022/10/08 10:08:43;;;;;;;3.88;1.60;;;18.60;83.40;;;;;;5059636;28;20021;-81
2022/10/08 10:11:31;;;;;;;4.80;1.90;;;18.60;83.30;;;;;;5055148;28;20074;-79
2022/10/08 10:14:04;;;;;;;3.75;1.90;;;18.50;83.50;;;;;;5043953;28;20527;-81
2022/10/08 10:16:37;;;;;;;3.30;1.40;;;18.60;83.80;;;;;;5075140;28;20561;-81
2022/10/08 10:19:15;;;;;;;4.10;1.65;;;18.60;83.80;;;;;;5054157;28;20027;-83
2022/10/08 10:21:59;;;;;;;3.33;1.60;;;18.50;83.90;;;;;;5069538;28;20058;-81
2022/10/08 10:24:47;;;;;;;3.72;1.67;;;18.50;83.70;;;;;;5055673;28;20738;-80
2022/10/08 10:27:29;;;;;;;4.38;1.83;;;18.60;83.40;;;;;;5056275;28;20119;-80
2022/10/08 10:30:08;;;;;;;4.35;1.60;;;18.70;83.20;;;;;;5056398;28;20042;-82
2022/10/08 10:32:52;;;;;;;3.55;1.70;;;18.70;83.20;;;;;;5055529;28;20024;-79
2022/10/08 10:35:27;;;;;;;3.25;1.60;;;18.70;83.00;;;;;;5072848;28;20032;-77
2022/10/08 10:38:12;;;;;;;3.72;1.60;;;18.70;83.00;;;;;;5053069;28;20021;-79
2022/10/08 10:41:13;;;;;;;13.82;2.22;;;18.70;82.10;;;;;;5072410;28;20059;-78
2022/10/08 10:43:47;;;;;;;19.83;2.35;;;18.70;78.90;;;;;;5067551;28;20028;-80
2022/10/08 10:46:30;;;;;;;11.32;2.53;;;18.70;80.00;;;;;;5038709;28;20020;-80
2022/10/08 10:48:56;;;;;;;11.00;2.40;;;18.60;80.70;;;;;;5066478;28;20035;-80
2022/10/08 10:51:39;;;;;;;8.90;1.85;;;18.60;81.10;;;;;;5054605;28;20480;-81
2022/10/08 10:54:19;;;;;;;10.95;2.08;;;18.60;81.40;;;;;;5054228;28;20460;-80
2022/10/08 10:56:53;;;;;;;6.55;1.80;;;18.50;81.50;;;;;;5052260;28;20084;-81
2022/10/08 10:59:47;;;;;;;6.38;2.05;;;18.60;81.60;;;;;;5054032;28;20377;-80
2022/10/08 11:02:29;;;;;;;6.65;2.05;;;18.60;81.70;;;;;;5066786;28;20021;-78
2022/10/08 11:05:01;;;;;;;9.25;2.15;;;18.60;81.60;;;;;;5039479;28;20040;-81
2022/10/08 11:07:32;;;;;;;;;;;18.60;81.60;;;;;;5074246;28;20047;-83
2022/10/08 11:10:14;;;;;;;6.32;2.05;;;18.70;81.70;;;;;;5056122;28;19912;-79
2022/10/08 11:12:51;;;;;;;6.13;2.22;;;18.70;81.70;;;;;;5064857;28;20028;-78
2022/10/08 11:15:21;;;;;;;5.38;2.13;;;18.70;81.50;;;;;;5038587;28;20033;-76
2022/10/08 11:17:52;;;;;;;4.80;1.80;;;18.70;81.60;;;;;;5063446;28;20032;-80
2022/10/08 11:20:17;;;;;;;6.55;1.92;;;18.80;81.50;;;;;;5069314;28;20056;-80
2022/10/08 11:22:53;;;;;;;6.32;1.67;;;18.80;81.60;;;;;;5067949;28;20086;-76
2022/10/08 11:25:30;;;;;;;4.75;1.70;;;18.70;81.70;;;;;;5069197;28;20032;-76
2022/10/08 11:28:13;;;;;;;4.25;1.67;;;18.70;81.80;;;;;;5050120;28;20397;-78
2022/10/08 11:31:16;;;;;;;4.47;1.75;;;18.60;82.00;;;;;;5068571;28;20784;-77
2022/10/08 11:33:43;;;;;;;5.80;1.80;;;18.60;82.10;;;;;;5069337;28;20025;-77
2022/10/08 11:36:41;;;;;;;12.32;2.20;;;18.60;82.00;;;;;;5068499;28;20033;-77
2022/10/08 11:39:19;;;;;;;19.10;3.30;;;18.60;79.10;;;;;;5070668;28;20036;-80
2022/10/08 11:42:19;;;;;;;12.18;2.55;;;18.60;79.40;;;;;;5053023;28;20377;-79
2022/10/08 11:44:45;;;;;;;13.23;2.70;;;18.60;79.30;;;;;;5039264;28;20500;-78
2022/10/08 11:47:42;;;;;;;13.20;2.28;;;18.70;79.70;;;;;;5052701;28;20039;-79
2022/10/08 11:50:31;;;;;;;8.88;2.50;;;18.70;79.80;;;;;;5058347;28;20071;-79
2022/10/08 11:53:19;;;;;;;17.98;2.85;;;18.70;80.00;;;;;;5053628;28;20098;-79
2022/10/08 11:55:54;;;;;;;10.75;2.10;;;18.70;80.20;;;;;;5052513;28;20059;-81
2022/10/08 11:58:29;;;;;;;11.57;2.30;;;18.80;80.40;;;;;;5072674;28;20024;-79
2022/10/08 12:01:21;;;;;;;11.05;2.20;;;18.80;80.70;;;;;;5053557;28;20028;-80
2022/10/08 12:04:09;;;;;;;12.25;3.10;;;18.80;80.70;;;;;;5069701;28;20049;-79
2022/10/08 12:06:35;;;;;;;13.05;2.15;;;18.80;81.50;;;;;;5064198;28;20028;-77
2022/10/08 12:09:04;;;;;;;9.55;2.33;;;18.90;82.10;;;;;;5052615;28;20408;-80
2022/10/08 12:11:42;;;;;;;6.07;1.92;;;18.90;82.40;;;;;;5052305;28;20081;-80
2022/10/08 12:14:13;;;;;;;9.50;2.08;;;19.00;83.30;;;;;;5053431;28;20052;-81
2022/10/08 12:16:48;;;;;;;8.52;1.92;;;19.00;83.30;;;;;;5052668;28;20028;-81
2022/10/08 12:19:34;;;;;;;14.15;2.25;;;19.10;83.80;;;;;;5053160;28;20033;-81
2022/10/08 12:22:13;;;;;;;8.48;1.83;;;19.20;83.60;;;;;;5052912;28;20774;-80
2022/10/08 12:24:38;;;;;;;8.50;2.20;;;19.40;84.20;;;;;;5053410;28;20028;-79
2022/10/08 12:27:16;;;;;;;8.77;2.03;;;19.50;84.30;;;;;;5069487;28;20033;-78
2022/10/08 12:30:07;;;;;;;7.85;1.90;;;19.60;84.50;;;;;;5068835;28;20035;-79
2022/10/08 12:32:41;;;;;;;7.93;2.03;;;19.80;84.70;;;;;;5070510;28;20488;-80
2022/10/08 12:35:34;;;;;;;10.23;1.90;;;19.80;84.70;;;;;;5068742;28;20035;-79
2022/10/08 12:38:12;;;;;;;9.00;2.13;;;19.90;84.80;;;;;;5052378;28;20012;-81
2022/10/08 12:41:15;;;;;;;9.02;1.90;;;19.90;84.20;;;;;;5069403;28;20817;-81
2022/10/08 12:43:59;;;;;;;8.32;2.03;;;20.00;84.60;;;;;;5054039;28;20029;-81
2022/10/08 12:46:53;;;;;;;9.90;2.40;;;20.00;85.00;;;;;;5053384;28;20038;-80
2022/10/08 12:49:42;;;;;;;7.53;1.88;;;20.10;85.30;;;;;;5069623;28;20024;-80
2022/10/08 12:52:16;;;;;;;7.95;1.70;;;20.10;84.90;;;;;;5070676;28;20025;-81
2022/10/08 12:54:51;;;;;;;8.68;2.05;;;20.20;84.90;;;;;;5070225;28;20399;-79
2022/10/08 12:57:24;;;;;;;7.88;2.10;;;20.10;84.80;;;;;;5050301;28;20059;-81
2022/10/08 12:59:51;;;;;;;7.43;1.90;;;20.10;84.40;;;;;;5052841;28;20063;-81
2022/10/08 13:02:43;;;;;;;6.68;2.10;;;20.10;84.10;;;;;;5052638;28;20025;-80
2022/10/08 13:05:30;;;;;;;6.55;1.92;;;20.20;83.50;;;;;;5049073;28;20037;-82
2022/10/08 13:07:56;;;;;;;7.88;1.80;;;20.30;83.20;;;;;;5052548;28;20028;-79
2022/10/08 13:10:27;;;;;;;8.73;2.15;;;20.10;83.60;;;;;;5052996;28;20120;-81
2022/10/08 13:13:03;;;;;;;6.35;1.67;;;20.00;83.20;;;;;;5053265;28;20025;-81